createdAt,value
2017-10-22T00:00:21.570Z,74.46
2017-10-22T00:01:31.264Z,74.37
2017-10-22T00:02:41.306Z,75.13
2017-10-22T00:03:51.024Z,75.09
2017-10-22T00:05:00.401Z,75.42
2017-10-22T00:06:10.441Z,74.27
2017-10-22T00:07:20.149Z,74.55
2017-10-22T00:08:29.834Z,74.46
2017-10-22T00:09:39.532Z,74.46
2017-10-22T00:10:49.300Z,74.55
2017-10-22T00:11:59.347Z,74.42
2017-10-22T00:13:09.364Z,74.99
2017-10-22T00:14:19.396Z,75.57
2017-10-22T00:15:29.108Z,75.18
2017-10-22T00:16:38.788Z,75.57
2017-10-22T00:17:48.482Z,75.37
2017-10-22T00:18:58.170Z,73.85
2017-10-22T00:20:08.199Z,74.52
2017-10-22T00:21:17.888Z,74.42
2017-10-22T00:22:27.255Z,74.71
2017-10-22T00:23:36.618Z,75.37
2017-10-22T00:24:46.311Z,75.37
2017-10-22T00:25:56.339Z,75.18
2017-10-22T00:27:06.359Z,74.9
2017-10-22T00:28:16.038Z,75.22
2017-10-22T00:29:26.060Z,74.23
2017-10-22T00:30:35.755Z,74.42
2017-10-22T00:31:45.454Z,75.18
2017-10-22T00:32:55.479Z,74.42
2017-10-22T00:34:04.833Z,74.13
2017-10-22T00:35:15.208Z,73.75
2017-10-22T00:36:25.242Z,74.71
2017-10-22T00:37:34.931Z,74.61
2017-10-22T00:38:44.612Z,74.13
2017-10-22T00:39:54.653Z,74.32
2017-10-22T00:41:04.009Z,74.61
2017-10-22T00:42:13.689Z,74.23
2017-10-22T00:43:24.052Z,74.61
2017-10-22T00:44:34.078Z,74.61
2017-10-22T00:45:44.115Z,74.52
2017-10-22T00:46:54.480Z,74.42
2017-10-22T00:48:04.523Z,74.42
2017-10-22T00:49:14.561Z,74.04
2017-10-22T00:50:24.918Z,74.23
2017-10-22T00:51:34.269Z,74.32
2017-10-22T00:52:44.291Z,73.85
2017-10-22T00:53:54.315Z,74.52
2017-10-22T00:55:04.351Z,74.32
2017-10-22T00:56:14.380Z,74.23
2017-10-22T00:57:23.043Z,74.32
2017-10-22T00:58:33.071Z,73.85
2017-10-22T00:59:42.766Z,73.85
2017-10-22T01:00:52.469Z,74.23
2017-10-22T01:02:01.830Z,74.42
2017-10-22T01:03:11.858Z,74.8
2017-10-22T01:04:21.900Z,74.42
2017-10-22T01:05:31.578Z,74.42
2017-10-22T01:06:41.605Z,74.32
2017-10-22T01:07:51.981Z,74.23
2017-10-22T01:09:01.341Z,74.42
2017-10-22T01:10:11.358Z,74.32
2017-10-22T01:11:21.729Z,74.32
2017-10-22T01:12:31.417Z,73.94
2017-10-22T01:13:41.430Z,74.71
2017-10-22T01:14:51.448Z,74.61
2017-10-22T01:16:01.483Z,74.52
2017-10-22T01:17:11.866Z,74.04
2017-10-22T01:18:21.890Z,74.04
2017-10-22T01:19:32.248Z,74.04
2017-10-22T01:20:42.281Z,73.85
2017-10-22T01:21:51.298Z,74.04
2017-10-22T01:23:00.311Z,74.61
2017-10-22T01:24:11.573Z,74.32
2017-10-22T01:25:22.868Z,74.71
2017-10-22T01:26:32.302Z,74.32
2017-10-22T01:27:42.229Z,74.67
2017-10-22T01:28:52.732Z,74.32
2017-10-22T01:30:02.859Z,74.52
2017-10-22T01:31:13.116Z,74.48
2017-10-22T01:32:23.624Z,74.23
2017-10-22T01:33:35.469Z,74.38
2017-10-22T01:34:48.623Z,74.67
2017-10-22T01:36:00.069Z,74.19
2017-10-22T01:37:10.648Z,73.81
2017-10-22T01:38:20.805Z,73.94
2017-10-22T01:39:30.597Z,74.04
2017-10-22T01:40:41.185Z,73.94
2017-10-22T01:41:50.930Z,73.52
2017-10-22T01:43:00.702Z,73.94
2017-10-22T01:44:11.291Z,74.13
2017-10-22T01:45:20.419Z,74.1
2017-10-22T01:46:30.534Z,73.72
2017-10-22T01:47:40.394Z,73.52
2017-10-22T01:48:49.842Z,73.72
2017-10-22T01:49:59.254Z,74.01
2017-10-22T01:51:09.514Z,74.01
2017-10-22T01:52:19.681Z,72.96
2017-10-22T01:53:30.117Z,73.52
2017-10-22T01:54:40.689Z,72.67
2017-10-22T01:55:51.186Z,73.05
2017-10-22T01:57:01.634Z,73.43
2017-10-22T01:58:11.872Z,72.19
2017-10-22T01:59:21.661Z,72.96
2017-10-22T02:00:30.777Z,72.67
2017-10-22T02:01:40.640Z,72.19
2017-10-22T02:02:50.804Z,72.67
2017-10-22T02:04:02.009Z,72.19
2017-10-22T02:05:15.033Z,71.81
2017-10-22T02:06:25.946Z,73.05
2017-10-22T02:07:36.052Z,72.13
2017-10-22T02:08:46.404Z,72.19
2017-10-22T02:09:56.081Z,72.96
2017-10-22T02:11:06.101Z,73.05
2017-10-22T02:12:15.442Z,72.09
2017-10-22T02:13:25.464Z,72.48
2017-10-22T02:14:35.144Z,73.24
2017-10-22T02:15:45.158Z,72.38
2017-10-22T02:16:54.831Z,72.13
2017-10-22T02:18:04.512Z,71.27
2017-10-22T02:19:13.853Z,72.23
2017-10-22T02:20:23.532Z,71.52
2017-10-22T02:21:33.565Z,71.33
2017-10-22T02:22:43.584Z,71.52
2017-10-22T02:23:53.259Z,70.76
2017-10-22T02:25:02.599Z,71.33
2017-10-22T02:26:12.627Z,71.23
2017-10-22T02:27:22.650Z,71.43
2017-10-22T02:28:32.664Z,70.79
2017-10-22T02:29:42.005Z,71.52
2017-10-22T02:30:51.353Z,71.08
2017-10-22T02:32:01.368Z,70.95
2017-10-22T02:33:11.382Z,70.7
2017-10-22T02:34:21.089Z,70.98
2017-10-22T02:35:30.764Z,70.03
2017-10-22T02:36:40.442Z,70.61
2017-10-22T02:37:50.120Z,70.61
2017-10-22T02:38:59.470Z,70.03
2017-10-22T02:40:09.481Z,69.65
2017-10-22T02:41:19.493Z,70.61
2017-10-22T02:42:28.837Z,70.61
2017-10-22T02:43:37.841Z,70.7
2017-10-22T02:44:46.848Z,70.89
2017-10-22T02:45:56.524Z,70.03
2017-10-22T02:47:05.872Z,70.61
2017-10-22T02:48:15.896Z,70.7
2017-10-22T02:49:26.246Z,70.22
2017-10-22T02:50:35.592Z,70.61
2017-10-22T02:51:45.609Z,69.74
2017-10-22T02:52:55.619Z,70.51
2017-10-22T02:54:05.972Z,69.56
2017-10-22T02:55:15.669Z,70.32
2017-10-22T02:56:26.026Z,69.84
2017-10-22T02:57:36.379Z,69.74
2017-10-22T02:58:46.404Z,69.27
2017-10-22T02:59:56.763Z,70.03
2017-10-22T03:01:06.449Z,69.84
2017-10-22T03:02:16.800Z,70.22
2017-10-22T03:03:26.483Z,69.17
2017-10-22T03:04:36.509Z,69.56
2017-10-22T03:05:46.182Z,69.27
2017-10-22T03:06:55.527Z,69.93
2017-10-22T03:08:05.204Z,69.84
2017-10-22T03:09:14.883Z,70.03
2017-10-22T03:10:24.908Z,69.59
2017-10-22T03:11:34.585Z,69.31
2017-10-22T03:12:44.283Z,69.4
2017-10-22T03:13:54.641Z,68.79
2017-10-22T03:15:04.317Z,68.88
2017-10-22T03:16:13.657Z,69.59
2017-10-22T03:17:23.669Z,69.17
2017-10-22T03:18:33.023Z,69.27
2017-10-22T03:19:43.040Z,68.6
2017-10-22T03:20:53.056Z,69.08
2017-10-22T03:22:02.730Z,68.51
2017-10-22T03:23:12.739Z,68.6
2017-10-22T03:24:22.768Z,69.08
2017-10-22T03:25:32.441Z,69.08
2017-10-22T03:26:41.803Z,68.98
2017-10-22T03:27:51.479Z,68.22
2017-10-22T03:29:01.511Z,68.12
2017-10-22T03:30:11.544Z,68.32
2017-10-22T03:31:21.910Z,68.41
2017-10-22T03:32:31.945Z,68.41
2017-10-22T03:33:41.624Z,68.12
2017-10-22T03:34:51.305Z,68.12
2017-10-22T03:36:01.327Z,68.32
2017-10-22T03:37:11.350Z,68.22
2017-10-22T03:38:21.030Z,68.12
2017-10-22T03:39:30.707Z,67.83
2017-10-22T03:40:40.390Z,68.88
2017-10-22T03:41:50.735Z,68.88
2017-10-22T03:43:00.076Z,68.41
2017-10-22T03:44:10.086Z,68.41
2017-10-22T03:45:20.097Z,68.22
2017-10-22T03:46:30.110Z,68.22
2017-10-22T03:47:39.467Z,68.12
2017-10-22T03:48:49.482Z,69.08
2017-10-22T03:49:59.492Z,67.36
2017-10-22T03:51:09.174Z,68.22
2017-10-22T03:52:19.189Z,69.46
2017-10-22T03:53:29.541Z,69.74
2017-10-22T03:54:38.885Z,68.98
2017-10-22T03:55:49.230Z,69.74
2017-10-22T03:56:58.910Z,70.13
2017-10-22T03:58:08.584Z,72.13
2017-10-22T03:59:18.958Z,72.23
2017-10-22T04:00:28.983Z,74.04
2017-10-22T04:01:38.996Z,73.85
2017-10-22T04:02:49.346Z,74.71
2017-10-22T04:03:59.695Z,73.56
2017-10-22T04:05:10.034Z,75.95
2017-10-22T04:06:19.040Z,76.48
2017-10-22T04:07:29.061Z,77.06
2017-10-22T04:08:38.743Z,78.01
2017-10-22T04:09:49.088Z,78.2
2017-10-22T04:10:58.761Z,77.82
2017-10-22T04:12:07.763Z,78.67
2017-10-22T04:13:17.127Z,79.06
2017-10-22T04:14:26.474Z,79.25
2017-10-22T04:15:36.162Z,79.25
2017-10-22T04:16:45.841Z,79.53
2017-10-22T04:17:55.852Z,80.2
2017-10-22T04:19:06.206Z,79.97
2017-10-22T04:20:16.261Z,82.35
2017-10-22T04:21:26.286Z,82.26
2017-10-22T04:22:36.301Z,83.31
2017-10-22T04:23:45.307Z,83.31
2017-10-22T04:24:55.314Z,84.16
2017-10-22T04:26:04.990Z,85.97
2017-10-22T04:27:14.718Z,86.74
2017-10-22T04:28:24.741Z,86.07
2017-10-22T04:29:34.415Z,87.36
2017-10-22T04:30:44.431Z,86.69
2017-10-22T04:31:53.804Z,88.03
2017-10-22T04:33:04.145Z,88.51
2017-10-22T04:34:14.156Z,88.98
2017-10-22T04:35:23.827Z,89.65
2017-10-22T04:36:33.504Z,90.03
2017-10-22T04:37:42.843Z,90.7
2017-10-22T04:38:53.188Z,89.94
2017-10-22T04:40:02.876Z,90.98
2017-10-22T04:41:12.219Z,90.7
2017-10-22T04:42:21.563Z,90.79
2017-10-22T04:43:31.571Z,92.5
2017-10-22T04:44:41.585Z,92.22
2017-10-22T04:45:51.622Z,93.32
2017-10-22T04:47:02.030Z,92.89
2017-10-22T04:48:11.739Z,93.55
2017-10-22T04:49:21.408Z,93.22
2017-10-22T04:50:31.426Z,93.51
2017-10-22T04:51:41.159Z,93.7
2017-10-22T04:52:51.610Z,93.13
2017-10-22T04:54:01.615Z,93.89
2017-10-22T04:55:11.634Z,93.79
2017-10-22T04:56:21.349Z,94.46
2017-10-22T04:57:31.732Z,94.37
2017-10-22T04:58:41.740Z,95.03
2017-10-22T04:59:51.081Z,95.12
2017-10-22T05:01:00.754Z,95.51
2017-10-22T05:02:09.774Z,95.41
2017-10-22T05:03:20.126Z,95.98
2017-10-22T05:04:30.131Z,95.32
2017-10-22T05:05:39.469Z,95.51
2017-10-22T05:06:49.137Z,95.32
2017-10-22T05:07:59.156Z,95.89
2017-10-22T05:09:09.169Z,95.6
2017-10-22T05:10:19.514Z,95.7
2017-10-22T05:11:29.862Z,95.51
2017-10-22T05:12:39.536Z,95.79
2017-10-22T05:13:49.583Z,95.98
2017-10-22T05:14:58.585Z,95.7
2017-10-22T05:16:07.921Z,95.51
2017-10-22T05:17:17.261Z,95.6
2017-10-22T05:18:26.942Z,96.36
2017-10-22T05:19:35.964Z,95.6
2017-10-22T05:20:45.975Z,95.51
2017-10-22T05:21:55.662Z,95.7
2017-10-22T05:23:05.333Z,95.6
2017-10-22T05:24:15.008Z,95.98
2017-10-22T05:25:24.681Z,95.6
2017-10-22T05:26:34.698Z,95.03
2017-10-22T05:27:44.383Z,94.84
2017-10-22T05:28:53.415Z,95.89
2017-10-22T05:30:02.769Z,95.7
2017-10-22T05:31:12.781Z,95.98
2017-10-22T05:32:22.487Z,95.41
2017-10-22T05:33:32.515Z,95.79
2017-10-22T05:34:42.896Z,95.6
2017-10-22T05:35:52.570Z,95.7
2017-10-22T05:37:02.246Z,95.79
2017-10-22T05:38:12.259Z,95.79
2017-10-22T05:39:21.937Z,95.89
2017-10-22T05:40:31.617Z,95.89
2017-10-22T05:41:41.287Z,95.51
2017-10-22T05:42:51.700Z,96.17
2017-10-22T05:44:02.061Z,95.98
2017-10-22T05:45:11.401Z,95.7
2017-10-22T05:46:21.775Z,95.79
2017-10-22T05:47:31.115Z,95.6
2017-10-22T05:48:41.140Z,95.89
2017-10-22T05:49:51.484Z,96.08
2017-10-22T05:51:00.485Z,96.65
2017-10-22T05:52:10.531Z,95.32
2017-10-22T05:53:20.220Z,94.84
2017-10-22T05:54:30.250Z,95.03
2017-10-22T05:55:39.600Z,95.6
2017-10-22T05:56:49.277Z,95.51
2017-10-22T05:57:58.957Z,95.89
2017-10-22T05:59:08.292Z,95.89
2017-10-22T06:00:17.983Z,96.94
2017-10-22T06:01:28.337Z,96.46
2017-10-22T06:02:38.045Z,96.75
2017-10-22T06:03:47.723Z,95.6
2017-10-22T06:04:57.749Z,96.36
2017-10-22T06:06:07.430Z,95.7
2017-10-22T06:07:17.428Z,95.98
2017-10-22T06:08:27.099Z,96.75
2017-10-22T06:09:37.510Z,94.84
2017-10-22T06:10:47.534Z,95.7
2017-10-22T06:11:57.545Z,96.27
2017-10-22T06:13:07.903Z,95.89
2017-10-22T06:14:17.912Z,95.7
2017-10-22T06:15:27.259Z,96.17
2017-10-22T06:16:36.935Z,96.55
2017-10-22T06:17:46.988Z,96.55
2017-10-22T06:18:56.413Z,97.22
2017-10-22T06:20:06.098Z,96.94
2017-10-22T06:21:16.448Z,95.7
2017-10-22T06:22:26.129Z,96.46
2017-10-22T06:23:35.801Z,97.22
2017-10-22T06:24:46.156Z,97.51
2017-10-22T06:25:55.828Z,97.6
2017-10-22T06:27:05.524Z,95.98
2017-10-22T06:28:15.201Z,96.55
2017-10-22T06:29:24.878Z,96.65
2017-10-22T06:30:34.890Z,97.41
2017-10-22T06:31:44.564Z,97.22
2017-10-22T06:32:54.931Z,95.79
2017-10-22T06:34:04.940Z,96.55
2017-10-22T06:35:14.647Z,96.55
2017-10-22T06:36:24.666Z,96.65
2017-10-22T06:37:34.670Z,96.84
2017-10-22T06:38:44.008Z,96.17
2017-10-22T06:39:53.351Z,95.6
2017-10-22T06:41:03.782Z,96.27
2017-10-22T06:42:13.556Z,95.89
2017-10-22T06:43:23.327Z,96.75
2017-10-22T06:44:33.690Z,96.36
2017-10-22T06:45:44.038Z,96.94
2017-10-22T06:46:54.389Z,97.22
2017-10-22T06:48:04.095Z,96.55
2017-10-22T06:49:13.100Z,96.75
2017-10-22T06:50:22.786Z,96.46
2017-10-22T06:51:32.807Z,95.79
2017-10-22T06:52:42.487Z,96.84
2017-10-22T06:53:52.501Z,96.27
2017-10-22T06:55:02.203Z,96.65
2017-10-22T06:56:11.552Z,96.27
2017-10-22T06:57:21.581Z,96.84
2017-10-22T06:58:31.286Z,96.17
2017-10-22T06:59:41.298Z,95.41
2017-10-22T07:00:50.974Z,95.03
2017-10-22T07:02:00.990Z,94.84
2017-10-22T07:03:10.329Z,95.6
2017-10-22T07:04:20.706Z,95.36
2017-10-22T07:05:30.736Z,95.65
2017-10-22T07:06:40.501Z,95.75
2017-10-22T07:07:50.614Z,94.41
2017-10-22T07:09:00.628Z,94.03
2017-10-22T07:10:09.964Z,94.03
2017-10-22T07:11:19.980Z,94.13
2017-10-22T07:12:29.375Z,93.27
2017-10-22T07:13:39.396Z,94.22
2017-10-22T07:14:48.824Z,93.93
2017-10-22T07:15:58.367Z,94.22
2017-10-22T07:17:08.226Z,95.17
2017-10-22T07:18:19.906Z,93.93
2017-10-22T07:19:32.522Z,93.65
2017-10-22T07:20:43.645Z,93.84
2017-10-22T07:21:53.722Z,93.93
2017-10-22T07:23:04.319Z,94.22
2017-10-22T07:24:14.135Z,93.84
2017-10-22T07:25:24.026Z,94.6
2017-10-22T07:26:33.893Z,94.41
2017-10-22T07:27:43.904Z,95.08
2017-10-22T07:28:58.397Z,93.93
2017-10-22T07:30:10.680Z,93.37
2017-10-22T07:31:20.798Z,94.41
2017-10-22T07:32:30.726Z,92.89
2017-10-22T07:33:40.858Z,92.79
2017-10-22T07:34:51.300Z,93.37
2017-10-22T07:36:01.103Z,93.84
2017-10-22T07:37:11.243Z,93.65
2017-10-22T07:38:21.687Z,93.08
2017-10-22T07:39:31.944Z,93.55
2017-10-22T07:40:42.084Z,92.69
2017-10-22T07:41:52.220Z,92.69
2017-10-22T07:43:02.494Z,92.69
2017-10-22T07:44:12.324Z,93.17
2017-10-22T07:45:22.060Z,92.41
2017-10-22T07:46:31.969Z,91.36
2017-10-22T07:47:42.372Z,92.89
2017-10-22T07:48:52.745Z,91.84
2017-10-22T07:50:03.212Z,93.65
2017-10-22T07:51:13.659Z,94.46
2017-10-22T07:52:24.125Z,93.17
2017-10-22T07:53:33.938Z,91.98
2017-10-22T07:54:44.457Z,92.27
2017-10-22T07:55:54.261Z,92.74
2017-10-22T07:57:03.318Z,92.46
2017-10-22T07:58:13.225Z,91.41
2017-10-22T07:59:23.732Z,91.22
2017-10-22T08:00:34.188Z,90.84
2017-10-22T08:01:44.767Z,91.31
2017-10-22T08:02:54.480Z,90.08
2017-10-22T08:04:04.809Z,90.74
2017-10-22T08:05:15.332Z,89.5
2017-10-22T08:06:25.787Z,91.79
2017-10-22T08:07:36.045Z,90.93
2017-10-22T08:08:45.898Z,91.98
2017-10-22T08:09:56.334Z,89.22
2017-10-22T08:11:06.851Z,89.31
2017-10-22T08:12:17.248Z,90.08
2017-10-22T08:13:27.305Z,89.69
2017-10-22T08:14:37.058Z,90.26
2017-10-22T08:15:46.432Z,89.4
2017-10-22T08:16:55.938Z,88.59
2017-10-22T08:18:04.950Z,88.31
2017-10-22T08:19:14.715Z,89.45
2017-10-22T08:20:24.487Z,88.69
2017-10-22T08:21:34.410Z,88.02
2017-10-22T08:22:44.265Z,89.17
2017-10-22T08:23:54.425Z,89.54
2017-10-22T08:25:04.493Z,88.98
2017-10-22T08:26:14.695Z,87.74
2017-10-22T08:27:24.516Z,88.59
2017-10-22T08:28:34.290Z,88.4
2017-10-22T08:29:43.830Z,89.54
2017-10-22T08:30:53.988Z,88.5
2017-10-22T08:32:03.813Z,87.74
2017-10-22T08:33:13.957Z,87.83
2017-10-22T08:34:24.087Z,87.64
2017-10-22T08:35:33.790Z,87.93
2017-10-22T08:36:43.999Z,89.07
2017-10-22T08:37:54.145Z,87.26
2017-10-22T08:39:03.908Z,88.26
2017-10-22T08:40:13.644Z,88.45
2017-10-22T08:41:22.713Z,88.84
2017-10-22T08:42:32.178Z,88.74
2017-10-22T08:43:42.539Z,89.79
2017-10-22T08:44:51.979Z,89.89
2017-10-22T08:46:01.731Z,89.31
2017-10-22T08:47:11.489Z,88.45
2017-10-22T08:48:21.561Z,89.12
2017-10-22T08:49:32.021Z,89.6
2017-10-22T08:50:41.470Z,88.93
2017-10-22T08:51:51.519Z,88.45
2017-10-22T08:53:01.236Z,88.74
2017-10-22T08:54:11.155Z,89.6
2017-10-22T08:55:21.326Z,89.03
2017-10-22T08:56:30.731Z,89.12
2017-10-22T08:57:40.256Z,89.22
2017-10-22T08:58:49.759Z,88.59
2017-10-22T08:59:59.828Z,88.45
2017-10-22T09:01:09.951Z,88.74
2017-10-22T09:02:19.729Z,89.4
2017-10-22T09:03:29.650Z,88.36
2017-10-22T09:04:39.728Z,88.84
2017-10-22T09:05:50.178Z,89.03
2017-10-22T09:06:59.630Z,88.84
2017-10-22T09:08:10.000Z,89.79
2017-10-22T09:09:19.423Z,88.36
2017-10-22T09:10:29.872Z,88.36
2017-10-22T09:11:39.893Z,88.26
2017-10-22T09:12:50.235Z,89.69
2017-10-22T09:13:59.918Z,88.36
2017-10-22T09:15:09.595Z,88.98
2017-10-22T09:16:19.633Z,88.12
2017-10-22T09:17:29.645Z,88.98
2017-10-22T09:18:39.344Z,89.26
2017-10-22T09:19:48.809Z,87.54
2017-10-22T09:20:59.170Z,88.36
2017-10-22T09:22:08.618Z,87.88
2017-10-22T09:23:18.008Z,89.22
2017-10-22T09:24:28.034Z,89.03
2017-10-22T09:25:38.441Z,87.93
2017-10-22T09:26:48.494Z,89.03
2017-10-22T09:27:58.236Z,90.12
2017-10-22T09:29:08.141Z,88.59
2017-10-22T09:30:19.419Z,88.93
2017-10-22T09:31:29.095Z,88.55
2017-10-22T09:32:38.772Z,88.45
2017-10-22T09:33:48.111Z,89.31
2017-10-22T09:34:57.801Z,88.55
2017-10-22T09:36:07.512Z,88.26
2017-10-22T09:37:17.249Z,89.5
2017-10-22T09:38:26.991Z,88.93
2017-10-22T09:39:36.926Z,89.4
2017-10-22T09:40:46.734Z,88.45
2017-10-22T09:41:56.572Z,88.5
2017-10-22T09:43:07.173Z,87.16
2017-10-22T09:44:17.006Z,87.93
2017-10-22T09:45:27.550Z,90.03
2017-10-22T09:46:37.400Z,88.12
2017-10-22T09:47:47.701Z,87.45
2017-10-22T09:48:58.194Z,89.45
2017-10-22T09:50:08.655Z,87.26
2017-10-22T09:51:18.858Z,87.83
2017-10-22T09:52:29.049Z,87.93
2017-10-22T09:53:38.828Z,88.84
2017-10-22T09:54:48.764Z,87.79
2017-10-22T09:55:57.538Z,90.08
2017-10-22T09:57:07.655Z,88.84
2017-10-22T09:58:17.977Z,89.4
2017-10-22T09:59:27.455Z,90.74
2017-10-22T10:00:37.909Z,88.78
2017-10-22T10:01:47.799Z,88.59
2017-10-22T10:02:57.961Z,89.07
2017-10-22T10:04:08.446Z,87.64
2017-10-22T10:05:18.694Z,88.5
2017-10-22T10:06:28.803Z,89.74
2017-10-22T10:07:38.838Z,89.26
2017-10-22T10:08:48.904Z,88.88
2017-10-22T10:09:58.953Z,89.74
2017-10-22T10:11:08.296Z,88.5
2017-10-22T10:12:17.670Z,89.17
2017-10-22T10:13:27.674Z,86.88
2017-10-22T10:14:37.360Z,88.5
2017-10-22T10:15:47.481Z,88.5
2017-10-22T10:16:57.976Z,88.4
2017-10-22T10:18:07.887Z,88.4
2017-10-22T10:19:17.046Z,88.5
2017-10-22T10:20:26.879Z,88.69
2017-10-22T10:21:37.022Z,89.93
2017-10-22T10:22:46.854Z,89.64
2017-10-22T10:23:57.398Z,92.32
2017-10-22T10:25:07.617Z,89.74
2017-10-22T10:26:17.486Z,90.22
2017-10-22T10:27:27.639Z,89.93
2017-10-22T10:28:37.506Z,89.54
2017-10-22T10:29:48.045Z,89.74
2017-10-22T10:30:58.208Z,88.88
2017-10-22T10:32:07.300Z,89.74
2017-10-22T10:33:17.074Z,89.64
2017-10-22T10:34:26.275Z,88.54
2017-10-22T10:35:36.500Z,89.07
2017-10-22T10:36:46.698Z,88.88
2017-10-22T10:37:57.198Z,89.07
2017-10-22T10:39:06.723Z,89.17
2017-10-22T10:40:16.916Z,88.88
2017-10-22T10:41:27.032Z,89.36
2017-10-22T10:42:36.908Z,89.26
2017-10-22T10:43:47.096Z,89.78
2017-10-22T10:44:56.977Z,88.64
2017-10-22T10:46:07.168Z,89.59
2017-10-22T10:47:17.248Z,88.54
2017-10-22T10:48:27.098Z,88.45
2017-10-22T10:49:37.583Z,88.54
2017-10-22T10:50:47.036Z,88.92
2017-10-22T10:51:57.176Z,88.83
2017-10-22T10:53:06.336Z,88.54
2017-10-22T10:54:16.150Z,89.69
2017-10-22T10:55:26.673Z,89.69
2017-10-22T10:56:36.787Z,89.88
2017-10-22T10:57:46.586Z,88.92
2017-10-22T10:58:56.740Z,89.21
2017-10-22T11:00:06.145Z,87.21
2017-10-22T11:01:16.610Z,87.68
2017-10-22T11:02:26.786Z,87.35
2017-10-22T11:03:36.668Z,86.1
2017-10-22T11:04:47.274Z,87.73
2017-10-22T11:05:57.451Z,86.68
2017-10-22T11:07:06.587Z,84.96
2017-10-22T11:08:17.105Z,85.53
2017-10-22T11:09:26.991Z,84.29
2017-10-22T11:10:37.148Z,85.91
2017-10-22T11:11:46.638Z,86.35
2017-10-22T11:12:56.481Z,87.4
2017-10-22T11:14:06.667Z,86.25
2017-10-22T11:15:16.860Z,86.73
2017-10-22T11:16:27.023Z,87.78
2017-10-22T11:17:37.264Z,86.16
2017-10-22T11:18:47.172Z,87.3
2017-10-22T11:19:57.702Z,86.73
2017-10-22T11:21:08.201Z,86.35
2017-10-22T11:22:17.992Z,88.54
2017-10-22T11:23:27.789Z,88.3
2017-10-22T11:24:36.971Z,86.82
2017-10-22T11:25:47.489Z,87.21
2017-10-22T11:26:56.978Z,86.92
2017-10-22T11:28:06.810Z,86.63
2017-10-22T11:29:16.364Z,87.68
2017-10-22T11:30:26.501Z,88.78
2017-10-22T11:31:35.941Z,90.55
2017-10-22T11:32:46.492Z,89.5
2017-10-22T11:33:56.962Z,87.97
2017-10-22T11:35:07.045Z,87.59
2017-10-22T11:36:16.858Z,86.63
2017-10-22T11:37:26.607Z,86.92
2017-10-22T11:38:36.717Z,88.92
2017-10-22T11:39:46.525Z,87.87
2017-10-22T11:40:56.769Z,87.4
2017-10-22T11:42:06.897Z,86.92
2017-10-22T11:43:15.997Z,88.54
2017-10-22T11:44:26.584Z,88.54
2017-10-22T11:45:36.746Z,89.02
2017-10-22T11:46:45.821Z,88.54
2017-10-22T11:47:56.073Z,88.92
2017-10-22T11:49:06.231Z,86.25
2017-10-22T11:50:15.912Z,88.64
2017-10-22T11:51:25.592Z,87.68
2017-10-22T11:52:35.022Z,89.12
2017-10-22T11:53:45.235Z,87.21
2017-10-22T11:54:55.422Z,88.07
2017-10-22T11:56:04.905Z,87.59
2017-10-22T11:57:15.036Z,86.54
2017-10-22T11:58:25.464Z,85.87
2017-10-22T11:59:34.950Z,84.96
2017-10-22T12:00:45.475Z,86.3
2017-10-22T12:01:55.504Z,86.96
2017-10-22T12:03:05.343Z,85.82
2017-10-22T12:04:15.752Z,84.1
2017-10-22T12:05:25.826Z,84.86
2017-10-22T12:06:35.915Z,86.53
2017-10-22T12:07:45.403Z,88.15
2017-10-22T12:08:55.270Z,85.1
2017-10-22T12:10:05.107Z,83.38
2017-10-22T12:11:14.559Z,82.18
2017-10-22T12:12:23.997Z,83.86
2017-10-22T12:13:33.804Z,83.38
2017-10-22T12:14:43.289Z,84.05
2017-10-22T12:15:53.458Z,85.1
2017-10-22T12:17:03.567Z,82.71
2017-10-22T12:18:13.440Z,85
2017-10-22T12:19:23.599Z,85.14
2017-10-22T12:20:33.373Z,83.99
2017-10-22T12:21:43.303Z,84.85
2017-10-22T12:22:52.772Z,83.51
2017-10-22T12:24:03.298Z,83.61
2017-10-22T12:25:13.423Z,85.05
2017-10-22T12:26:22.934Z,83.67
2017-10-22T12:27:32.786Z,83.76
2017-10-22T12:28:42.911Z,84.43
2017-10-22T12:29:53.172Z,86.58
2017-10-22T12:31:03.269Z,87.63
2017-10-22T12:32:12.707Z,88.3
2017-10-22T12:33:22.229Z,88.68
2017-10-22T12:34:31.687Z,86.87
2017-10-22T12:35:41.475Z,88.01
2017-10-22T12:36:51.936Z,87.25
2017-10-22T12:38:01.792Z,86.58
2017-10-22T12:39:12.311Z,88.4
2017-10-22T12:40:22.038Z,88.59
2017-10-22T12:41:32.242Z,85.82
2017-10-22T12:42:41.662Z,86.1
2017-10-22T12:43:51.774Z,87.25
2017-10-22T12:45:01.992Z,87.25
2017-10-22T12:46:12.494Z,87.25
2017-10-22T12:47:22.586Z,85.82
2017-10-22T12:48:32.546Z,86.1
2017-10-22T12:49:42.760Z,85.72
2017-10-22T12:50:51.884Z,85.91
2017-10-22T12:52:02.133Z,85.44
2017-10-22T12:53:12.650Z,85.34
2017-10-22T12:54:22.816Z,85.72
2017-10-22T12:55:33.048Z,85.05
2017-10-22T12:56:43.624Z,84.96
2017-10-22T12:57:53.748Z,86.77
2017-10-22T12:59:04.234Z,86.96
2017-10-22T13:00:14.080Z,84.48
2017-10-22T13:01:23.525Z,85.05
2017-10-22T13:02:33.052Z,85.82
2017-10-22T13:03:44.002Z,85.63
2017-10-22T13:04:54.124Z,85.25
2017-10-22T13:06:04.654Z,85.53
2017-10-22T13:07:14.487Z,86.01
2017-10-22T13:08:24.280Z,86.87
2017-10-22T13:09:34.771Z,86.87
2017-10-22T13:10:44.121Z,87.73
2017-10-22T13:11:54.470Z,85.34
2017-10-22T13:13:04.476Z,84.72
2017-10-22T13:14:14.152Z,83.81
2017-10-22T13:15:24.160Z,84.77
2017-10-22T13:16:34.184Z,84.33
2017-10-22T13:17:44.538Z,84.1
2017-10-22T13:18:54.250Z,84.33
2017-10-22T13:20:03.979Z,84.91
2017-10-22T13:21:14.004Z,86.91
2017-10-22T13:22:23.745Z,84.72
2017-10-22T13:23:33.104Z,86.05
2017-10-22T13:24:42.472Z,87.77
2017-10-22T13:25:52.529Z,87.53
2017-10-22T13:27:02.925Z,84.81
2017-10-22T13:28:12.651Z,85.48
2017-10-22T13:29:21.339Z,85.05
2017-10-22T13:30:31.019Z,86.1
2017-10-22T13:31:40.039Z,87.44
2017-10-22T13:32:49.771Z,86.1
2017-10-22T13:33:59.446Z,85.15
2017-10-22T13:35:09.473Z,85.63
2017-10-22T13:36:19.162Z,85.05
2017-10-22T13:37:28.574Z,86.87
2017-10-22T13:38:38.412Z,85.82
2017-10-22T13:39:48.566Z,86.3
2017-10-22T13:40:58.639Z,86.3
2017-10-22T13:42:08.379Z,87.44
2017-10-22T13:43:18.268Z,86.01
2017-10-22T13:44:28.426Z,86.1
2017-10-22T13:45:38.796Z,85.82
2017-10-22T13:46:48.966Z,84.77
2017-10-22T13:47:59.036Z,84.29
2017-10-22T13:49:08.513Z,83.72
2017-10-22T13:50:18.591Z,84.91
2017-10-22T13:51:28.887Z,83.81
2017-10-22T13:52:38.978Z,83.62
2017-10-22T13:53:49.435Z,85.34
2017-10-22T13:54:59.737Z,83.62
2017-10-22T13:56:10.176Z,83.91
2017-10-22T13:57:20.640Z,85.34
2017-10-22T13:58:30.197Z,83.18
2017-10-22T13:59:40.068Z,84.72
2017-10-22T14:00:49.604Z,82.81
2017-10-22T14:01:59.474Z,82.61
2017-10-22T14:03:09.243Z,82.52
2017-10-22T14:04:18.955Z,82.48
2017-10-22T14:05:28.504Z,82.23
2017-10-22T14:06:38.761Z,83
2017-10-22T14:07:48.237Z,82.95
2017-10-22T14:08:57.978Z,83.43
2017-10-22T14:10:07.846Z,83.38
2017-10-22T14:11:17.919Z,83.67
2017-10-22T14:12:27.676Z,82.71
2017-10-22T14:13:37.904Z,81.95
2017-10-22T14:14:48.050Z,82.9
2017-10-22T14:15:58.213Z,80.8
2017-10-22T14:17:08.315Z,83.38
2017-10-22T14:18:18.128Z,84.62
2017-10-22T14:19:28.618Z,80.84
2017-10-22T14:20:38.707Z,82.75
2017-10-22T14:21:48.944Z,81.41
2017-10-22T14:22:59.135Z,80.9
2017-10-22T14:24:08.583Z,80.22
2017-10-22T14:25:17.974Z,81.66
2017-10-22T14:26:28.142Z,80.41
2017-10-22T14:27:38.015Z,81.51
2017-10-22T14:28:48.068Z,81.32
2017-10-22T14:29:58.447Z,79.22
2017-10-22T14:31:07.143Z,80.27
2017-10-22T14:32:17.182Z,78.74
2017-10-22T14:33:26.195Z,82.23
2017-10-22T14:34:36.247Z,79.98
2017-10-22T14:35:45.936Z,79.65
2017-10-22T14:36:55.613Z,81.18
2017-10-22T14:38:06.010Z,80.7
2017-10-22T14:39:16.464Z,80.7
2017-10-22T14:40:26.140Z,79.69
2017-10-22T14:41:36.170Z,80.65
2017-10-22T14:42:45.862Z,80.9
2017-10-22T14:43:56.265Z,81.03
2017-10-22T14:45:06.042Z,81.47
2017-10-22T14:46:16.707Z,81.85
2017-10-22T14:47:26.463Z,82.32
2017-10-22T14:48:36.555Z,81.37
2017-10-22T14:49:47.048Z,81.85
2017-10-22T14:50:57.461Z,81.52
2017-10-22T14:52:06.814Z,81.43
2017-10-22T14:53:16.839Z,84.29
2017-10-22T14:54:26.308Z,83.53
2017-10-22T14:55:36.029Z,82.48
2017-10-22T14:56:46.429Z,83.53
2017-10-22T14:57:56.192Z,85.34
2017-10-22T14:59:06.567Z,83.81
2017-10-22T15:00:16.300Z,86.1
2017-10-22T15:01:26.578Z,84.29
2017-10-22T15:02:37.041Z,83.53
2017-10-22T15:03:47.422Z,82.67